sensor_id;sensor_type;location;lat;lon;timestamp;temperature;humidity
816;DHT22;25928;51.062;13.752;2022-10-16T00:00:31;16.50;1.00
816;DHT22;25928;51.062;13.752;2022-10-16T00:02:56;16.50;1.00
816;DHT22;25928;51.062;13.752;2022-10-16T00:05:22;16.50;1.00
816;DHT22;25928;51.062;13.752;2022-10-16T00:07:48;16.40;1.00
816;DHT22;25928;51.062;13.752;2022-10-16T00:10:13;16.40;1.00
816;DHT22;25928;51.062;13.752;2022-10-16T00:12:39;16.40;1.00
816;DHT22;25928;51.062;13.752;2022-10-16T00:15:05;16.40;1.00
816;DHT22;25928;51.062;13.752;2022-10-16T00:17:31;16.40;1.00
816;DHT22;25928;51.062;13.752;2022-10-16T00:19:57;16.40;1.00
816;DHT22;25928;51.062;13.752;2022-10-16T00:22:23;16.30;1.00
816;DHT22;25928;51.062;13.752;2022-10-16T00:24:49;16.30;1.00
816;DHT22;25928;51.062;13.752;2022-10-16T00:27:15;16.30;1.00
816;DHT22;25928;51.062;13.752;2022-10-16T00:29:40;16.30;1.00
816;DHT22;25928;51.062;13.752;2022-10-16T00:32:06;16.20;1.00
816;DHT22;25928;51.062;13.752;2022-10-16T00:34:31;16.20;1.00
816;DHT22;25928;51.062;13.752;2022-10-16T00:36:57;16.20;1.00
816;DHT22;25928;51.062;13.752;2022-10-16T00:39:22;16.20;1.00
816;DHT22;25928;51.062;13.752;2022-10-16T00:41:48;16.20;1.00
816;DHT22;25928;51.062;13.752;2022-10-16T00:47:14;16.10;1.00
816;DHT22;25928;51.062;13.752;2022-10-16T00:49:41;16.10;1.00
816;DHT22;25928;51.062;13.752;2022-10-16T00:52:07;16.10;1.00
816;DHT22;25928;51.062;13.752;2022-10-16T00:54:33;16.10;1.00
816;DHT22;25928;51.062;13.752;2022-10-16T00:57:03;16.10;1.00
816;DHT22;25928;51.062;13.752;2022-10-16T00:59:38;16.20;1.00
816;DHT22;25928;51.062;13.752;2022-10-16T01:02:07;16.30;1.00
816;DHT22;25928;51.062;13.752;2022-10-16T01:04:45;16.30;1.00
816;DHT22;25928;51.062;13.752;2022-10-16T01:07:27;16.40;1.00
816;DHT22;25928;51.062;13.752;2022-10-16T01:13:13;16.50;1.00
816;DHT22;25928;51.062;13.752;2022-10-16T01:21:02;16.70;1.00
816;DHT22;25928;51.062;13.752;2022-10-16T01:23:53;16.70;1.00
816;DHT22;25928;51.062;13.752;2022-10-16T01:26:32;16.70;1.00
816;DHT22;25928;51.062;13.752;2022-10-16T01:29:18;16.80;1.00
816;DHT22;25928;51.062;13.752;2022-10-16T01:31:53;16.90;1.00
816;DHT22;25928;51.062;13.752;2022-10-16T01:34:25;16.90;1.00
816;DHT22;25928;51.062;13.752;2022-10-16T01:36:57;16.90;1.00
816;DHT22;25928;51.062;13.752;2022-10-16T01:39:31;16.90;1.00
816;DHT22;25928;51.062;13.752;2022-10-16T01:42:11;17.00;1.00
816;DHT22;25928;51.062;13.752;2022-10-16T01:44:38;17.00;1.00
816;DHT22;25928;51.062;13.752;2022-10-16T01:47:05;17.10;1.00
816;DHT22;25928;51.062;13.752;2022-10-16T01:49:34;17.00;1.00
816;DHT22;25928;51.062;13.752;2022-10-16T01:52:03;17.10;1.00
816;DHT22;25928;51.062;13.752;2022-10-16T01:54:31;17.00;1.00
816;DHT22;25928;51.062;13.752;2022-10-16T01:56:58;17.00;1.00
816;DHT22;25928;51.062;13.752;2022-10-16T01:59:26;17.10;1.00
816;DHT22;25928;51.062;13.752;2022-10-16T02:01:58;17.10;1.00
816;DHT22;25928;51.062;13.752;2022-10-16T02:04:33;17.10;1.00
816;DHT22;25928;51.062;13.752;2022-10-16T02:07:00;17.10;1.00
816;DHT22;25928;51.062;13.752;2022-10-16T02:09:26;17.10;1.00
816;DHT22;25928;51.062;13.752;2022-10-16T02:11:57;17.00;1.00
816;DHT22;25928;51.062;13.752;2022-10-16T02:14:24;17.00;1.00
816;DHT22;25928;51.062;13.752;2022-10-16T02:16:50;17.00;1.00
816;DHT22;25928;51.062;13.752;2022-10-16T02:19:17;17.20;1.00
816;DHT22;25928;51.062;13.752;2022-10-16T02:22:00;17.40;1.00
816;DHT22;25928;51.062;13.752;2022-10-16T02:27:36;17.20;1.00
816;DHT22;25928;51.062;13.752;2022-10-16T02:32:56;17.20;1.00
816;DHT22;25928;51.062;13.752;2022-10-16T02:35:23;17.20;1.00
816;DHT22;25928;51.062;13.752;2022-10-16T02:37:50;17.20;1.00
816;DHT22;25928;51.062;13.752;2022-10-16T02:40:17;17.20;1.00
816;DHT22;25928;51.062;13.752;2022-10-16T02:42:43;17.20;1.00
816;DHT22;25928;51.062;13.752;2022-10-16T02:45:10;17.20;1.00
816;DHT22;25928;51.062;13.752;2022-10-16T02:47:36;17.30;1.00
816;DHT22;25928;51.062;13.752;2022-10-16T02:50:01;17.30;1.00
816;DHT22;25928;51.062;13.752;2022-10-16T02:52:27;17.20;1.00
816;DHT22;25928;51.062;13.752;2022-10-16T02:54:52;17.30;1.00
816;DHT22;25928;51.062;13.752;2022-10-16T02:57:18;17.30;1.00
816;DHT22;25928;51.062;13.752;2022-10-16T02:59:45;17.30;1.00
816;DHT22;25928;51.062;13.752;2022-10-16T03:02:11;17.20;1.00
816;DHT22;25928;51.062;13.752;2022-10-16T03:04:37;17.20;1.00
816;DHT22;25928;51.062;13.752;2022-10-16T03:07:02;17.30;1.00
816;DHT22;25928;51.062;13.752;2022-10-16T03:09:28;17.30;1.00
816;DHT22;25928;51.062;13.752;2022-10-16T03:11:54;17.30;1.00
816;DHT22;25928;51.062;13.752;2022-10-16T03:14:19;17.30;1.00
816;DHT22;25928;51.062;13.752;2022-10-16T03:16:45;17.20;1.00
816;DHT22;25928;51.062;13.752;2022-10-16T03:19:10;17.10;1.00
816;DHT22;25928;51.062;13.752;2022-10-16T03:21:36;17.10;1.00
816;DHT22;25928;51.062;13.752;2022-10-16T03:24:02;17.10;1.00
816;DHT22;25928;51.062;13.752;2022-10-16T03:26:27;17.00;1.00
816;DHT22;25928;51.062;13.752;2022-10-16T03:28:53;17.00;1.00
816;DHT22;25928;51.062;13.752;2022-10-16T03:31:18;16.90;1.00
816;DHT22;25928;51.062;13.752;2022-10-16T03:33:44;16.90;1.00
816;DHT22;25928;51.062;13.752;2022-10-16T03:36:09;16.80;1.00
816;DHT22;25928;51.062;13.752;2022-10-16T03:38:35;16.80;1.00
816;DHT22;25928;51.062;13.752;2022-10-16T03:41:01;16.70;1.00
816;DHT22;25928;51.062;13.752;2022-10-16T03:43:26;16.80;1.00
816;DHT22;25928;51.062;13.752;2022-10-16T03:45:52;16.70;1.00
816;DHT22;25928;51.062;13.752;2022-10-16T03:48:18;16.80;1.00
816;DHT22;25928;51.062;13.752;2022-10-16T03:50:44;16.70;1.00
816;DHT22;25928;51.062;13.752;2022-10-16T03:53:09;16.70;1.00
816;DHT22;25928;51.062;13.752;2022-10-16T03:55:35;16.70;1.00
816;DHT22;25928;51.062;13.752;2022-10-16T03:58:01;16.80;1.00
816;DHT22;25928;51.062;13.752;2022-10-16T04:00:27;16.70;1.00
816;DHT22;25928;51.062;13.752;2022-10-16T04:02:53;16.60;1.00
816;DHT22;25928;51.062;13.752;2022-10-16T04:05:18;16.60;1.00
816;DHT22;25928;51.062;13.752;2022-10-16T04:07:44;16.70;1.00
816;DHT22;25928;51.062;13.752;2022-10-16T04:10:09;16.60;1.00
816;DHT22;25928;51.062;13.752;2022-10-16T04:12:35;16.60;1.00
816;DHT22;25928;51.062;13.752;2022-10-16T04:15:01;16.70;1.00
816;DHT22;25928;51.062;13.752;2022-10-16T04:17:27;16.70;1.00
816;DHT22;25928;51.062;13.752;2022-10-16T04:19:53;16.80;1.00
816;DHT22;25928;51.062;13.752;2022-10-16T04:22:18;16.80;1.00
816;DHT22;25928;51.062;13.752;2022-10-16T04:24:44;16.70;1.00
816;DHT22;25928;51.062;13.752;2022-10-16T04:27:09;16.70;1.00
816;DHT22;25928;51.062;13.752;2022-10-16T04:29:35;16.80;1.00
816;DHT22;25928;51.062;13.752;2022-10-16T04:32:00;16.80;1.00
816;DHT22;25928;51.062;13.752;2022-10-16T04:34:26;16.80;1.00
816;DHT22;25928;51.062;13.752;2022-10-16T04:36:51;16.90;1.00
816;DHT22;25928;51.062;13.752;2022-10-16T04:39:17;16.80;1.00
816;DHT22;25928;51.062;13.752;2022-10-16T04:41:43;16.80;1.00
816;DHT22;25928;51.062;13.752;2022-10-16T04:44:09;16.80;1.00
816;DHT22;25928;51.062;13.752;2022-10-16T04:46:34;16.80;1.00
816;DHT22;25928;51.062;13.752;2022-10-16T04:49:00;16.80;1.00
816;DHT22;25928;51.062;13.752;2022-10-16T04:51:26;16.70;1.00
816;DHT22;25928;51.062;13.752;2022-10-16T04:53:53;16.70;1.00
816;DHT22;25928;51.062;13.752;2022-10-16T04:56:18;16.70;1.00
816;DHT22;25928;51.062;13.752;2022-10-16T04:58:44;16.60;1.00
816;DHT22;25928;51.062;13.752;2022-10-16T05:01:09;16.80;1.00
816;DHT22;25928;51.062;13.752;2022-10-16T05:03:35;16.80;1.00
816;DHT22;25928;51.062;13.752;2022-10-16T05:06:00;16.70;1.00
816;DHT22;25928;51.062;13.752;2022-10-16T05:08:26;16.70;1.00
816;DHT22;25928;51.062;13.752;2022-10-16T05:10:51;16.70;1.00
816;DHT22;25928;51.062;13.752;2022-10-16T05:13:17;16.80;1.00
816;DHT22;25928;51.062;13.752;2022-10-16T05:15:47;16.80;1.00
816;DHT22;25928;51.062;13.752;2022-10-16T05:18:13;16.80;1.00
816;DHT22;25928;51.062;13.752;2022-10-16T05:20:39;16.80;1.00
816;DHT22;25928;51.062;13.752;2022-10-16T05:23:04;16.80;1.00
816;DHT22;25928;51.062;13.752;2022-10-16T05:25:30;16.70;1.00
816;DHT22;25928;51.062;13.752;2022-10-16T05:27:55;16.70;1.00
816;DHT22;25928;51.062;13.752;2022-10-16T05:30:21;16.70;1.00
816;DHT22;25928;51.062;13.752;2022-10-16T05:32:48;16.70;1.00
816;DHT22;25928;51.062;13.752;2022-10-16T05:35:14;16.80;1.00
816;DHT22;25928;51.062;13.752;2022-10-16T05:37:40;16.80;1.00
816;DHT22;25928;51.062;13.752;2022-10-16T05:40:06;16.80;1.00
816;DHT22;25928;51.062;13.752;2022-10-16T05:42:32;16.80;1.00
816;DHT22;25928;51.062;13.752;2022-10-16T05:44:57;16.80;1.00
816;DHT22;25928;51.062;13.752;2022-10-16T05:47:23;16.80;1.00
816;DHT22;25928;51.062;13.752;2022-10-16T05:49:48;16.90;1.00
816;DHT22;25928;51.062;13.752;2022-10-16T05:52:14;16.80;1.00
816;DHT22;25928;51.062;13.752;2022-10-16T05:54:39;16.80;1.00
816;DHT22;25928;51.062;13.752;2022-10-16T05:57:05;16.80;1.00
816;DHT22;25928;51.062;13.752;2022-10-16T05:59:31;16.80;1.00
816;DHT22;25928;51.062;13.752;2022-10-16T06:01:57;16.80;1.00
816;DHT22;25928;51.062;13.752;2022-10-16T06:04:22;16.80;1.00
816;DHT22;25928;51.062;13.752;2022-10-16T06:06:48;16.90;1.00
816;DHT22;25928;51.062;13.752;2022-10-16T06:09:13;16.90;1.00
816;DHT22;25928;51.062;13.752;2022-10-16T06:11:39;17.10;1.00
816;DHT22;25928;51.062;13.752;2022-10-16T06:14:05;17.10;1.00
816;DHT22;25928;51.062;13.752;2022-10-16T06:16:36;16.90;1.00
816;DHT22;25928;51.062;13.752;2022-10-16T06:19:02;16.90;1.00
816;DHT22;25928;51.062;13.752;2022-10-16T06:21:31;16.90;1.00
816;DHT22;25928;51.062;13.752;2022-10-16T06:23:58;16.90;1.00
816;DHT22;25928;51.062;13.752;2022-10-16T06:26:26;16.90;1.00
816;DHT22;25928;51.062;13.752;2022-10-16T06:28:54;17.00;1.00
816;DHT22;25928;51.062;13.752;2022-10-16T06:31:19;17.20;1.00
816;DHT22;25928;51.062;13.752;2022-10-16T06:33:45;17.20;1.00
816;DHT22;25928;51.062;13.752;2022-10-16T06:36:15;17.30;1.00
816;DHT22;25928;51.062;13.752;2022-10-16T06:38:42;17.40;1.00
816;DHT22;25928;51.062;13.752;2022-10-16T06:41:13;17.50;1.00
816;DHT22;25928;51.062;13.752;2022-10-16T06:43:39;17.60;1.00
816;DHT22;25928;51.062;13.752;2022-10-16T06:46:06;17.80;1.00
816;DHT22;25928;51.062;13.752;2022-10-16T06:48:36;17.80;1.00
816;DHT22;25928;51.062;13.752;2022-10-16T06:51:16;18.10;1.00
816;DHT22;25928;51.062;13.752;2022-10-16T06:53:44;18.10;1.00
816;DHT22;25928;51.062;13.752;2022-10-16T06:56:12;18.10;1.00
816;DHT22;25928;51.062;13.752;2022-10-16T06:58:38;18.10;1.00
816;DHT22;25928;51.062;13.752;2022-10-16T07:01:05;18.20;1.00
816;DHT22;25928;51.062;13.752;2022-10-16T07:03:31;18.20;1.00
816;DHT22;25928;51.062;13.752;2022-10-16T07:05:56;18.20;1.00
816;DHT22;25928;51.062;13.752;2022-10-16T07:08:22;18.10;1.00
816;DHT22;25928;51.062;13.752;2022-10-16T07:10:48;18.10;1.00
816;DHT22;25928;51.062;13.752;2022-10-16T07:13:13;18.10;1.00
816;DHT22;25928;51.062;13.752;2022-10-16T07:15:40;18.10;1.00
816;DHT22;25928;51.062;13.752;2022-10-16T07:18:06;18.10;1.00
816;DHT22;25928;51.062;13.752;2022-10-16T07:20:32;18.20;1.00
816;DHT22;25928;51.062;13.752;2022-10-16T07:22:57;18.20;1.00
816;DHT22;25928;51.062;13.752;2022-10-16T07:25:23;18.30;1.00
816;DHT22;25928;51.062;13.752;2022-10-16T07:27:48;18.40;1.00
816;DHT22;25928;51.062;13.752;2022-10-16T07:30:14;18.50;1.00
816;DHT22;25928;51.062;13.752;2022-10-16T07:32:40;18.60;1.00
816;DHT22;25928;51.062;13.752;2022-10-16T07:35:06;18.60;1.00
816;DHT22;25928;51.062;13.752;2022-10-16T07:37:31;18.60;1.00
816;DHT22;25928;51.062;13.752;2022-10-16T07:39:57;18.50;1.00
816;DHT22;25928;51.062;13.752;2022-10-16T07:42:22;18.50;1.00
816;DHT22;25928;51.062;13.752;2022-10-16T07:44:48;18.50;1.00
816;DHT22;25928;51.062;13.752;2022-10-16T07:47:13;18.50;1.00
816;DHT22;25928;51.062;13.752;2022-10-16T07:49:39;18.60;1.00
816;DHT22;25928;51.062;13.752;2022-10-16T07:52:04;18.60;1.00
816;DHT22;25928;51.062;13.752;2022-10-16T07:54:30;18.70;1.00
816;DHT22;25928;51.062;13.752;2022-10-16T07:56:56;18.70;1.00
816;DHT22;25928;51.062;13.752;2022-10-16T07:59:21;18.70;1.00
816;DHT22;25928;51.062;13.752;2022-10-16T08:01:49;18.80;1.00
816;DHT22;25928;51.062;13.752;2022-10-16T08:04:14;18.90;1.00
816;DHT22;25928;51.062;13.752;2022-10-16T08:06:40;19.10;1.00
816;DHT22;25928;51.062;13.752;2022-10-16T08:09:07;19.10;1.00
816;DHT22;25928;51.062;13.752;2022-10-16T08:11:33;19.20;1.00
816;DHT22;25928;51.062;13.752;2022-10-16T08:13:59;19.40;1.00
816;DHT22;25928;51.062;13.752;2022-10-16T08:16:24;19.50;1.00
816;DHT22;25928;51.062;13.752;2022-10-16T08:18:50;19.60;1.00
816;DHT22;25928;51.062;13.752;2022-10-16T08:21:19;19.70;1.00
816;DHT22;25928;51.062;13.752;2022-10-16T08:23:45;20.00;1.00
816;DHT22;25928;51.062;13.752;2022-10-16T08:26:12;19.90;1.00
816;DHT22;25928;51.062;13.752;2022-10-16T08:28:38;19.90;1.00
816;DHT22;25928;51.062;13.752;2022-10-16T08:31:12;19.80;1.00
816;DHT22;25928;51.062;13.752;2022-10-16T08:33:39;19.80;1.00
816;DHT22;25928;51.062;13.752;2022-10-16T08:36:06;19.80;1.00
816;DHT22;25928;51.062;13.752;2022-10-16T08:38:32;19.90;1.00
816;DHT22;25928;51.062;13.752;2022-10-16T08:43:54;20.10;1.00
816;DHT22;25928;51.062;13.752;2022-10-16T08:48:51;20.20;1.00
816;DHT22;25928;51.062;13.752;2022-10-16T08:51:31;20.20;1.00
816;DHT22;25928;51.062;13.752;2022-10-16T08:53:59;20.30;1.00
816;DHT22;25928;51.062;13.752;2022-10-16T08:56:26;20.30;1.00
816;DHT22;25928;51.062;13.752;2022-10-16T08:58:53;20.40;1.00
816;DHT22;25928;51.062;13.752;2022-10-16T09:01:21;20.70;1.00
816;DHT22;25928;51.062;13.752;2022-10-16T09:07:08;21.20;1.00
816;DHT22;25928;51.062;13.752;2022-10-16T09:09:30;21.10;1.00
816;DHT22;25928;51.062;13.752;2022-10-16T09:12:19;21.10;1.00
816;DHT22;25928;51.062;13.752;2022-10-16T09:15:17;21.30;1.00
816;DHT22;25928;51.062;13.752;2022-10-16T09:25:31;21.50;1.00
816;DHT22;25928;51.062;13.752;2022-10-16T09:27:58;21.70;1.00
816;DHT22;25928;51.062;13.752;2022-10-16T09:30:27;21.90;1.00
816;DHT22;25928;51.062;13.752;2022-10-16T09:32:53;22.30;1.00
816;DHT22;25928;51.062;13.752;2022-10-16T09:35:22;22.50;1.00
816;DHT22;25928;51.062;13.752;2022-10-16T09:37:51;22.40;1.00
816;DHT22;25928;51.062;13.752;2022-10-16T09:40:31;22.20;1.00
816;DHT22;25928;51.062;13.752;2022-10-16T09:43:21;22.10;1.00
816;DHT22;25928;51.062;13.752;2022-10-16T09:45:59;22.30;1.00
816;DHT22;25928;51.062;13.752;2022-10-16T09:48:36;22.30;1.00
816;DHT22;25928;51.062;13.752;2022-10-16T09:51:04;22.40;1.00
816;DHT22;25928;51.062;13.752;2022-10-16T09:53:46;22.40;1.00
816;DHT22;25928;51.062;13.752;2022-10-16T09:56:27;22.40;1.00
816;DHT22;25928;51.062;13.752;2022-10-16T09:58:59;22.50;1.00
816;DHT22;25928;51.062;13.752;2022-10-16T10:01:36;22.60;1.00
816;DHT22;25928;51.062;13.752;2022-10-16T10:04:03;22.90;1.00
816;DHT22;25928;51.062;13.752;2022-10-16T10:06:31;23.10;1.00
816;DHT22;25928;51.062;13.752;2022-10-16T10:09:05;23.40;1.00
816;DHT22;25928;51.062;13.752;2022-10-16T10:11:57;23.60;1.00
816;DHT22;25928;51.062;13.752;2022-10-16T10:17:26;23.40;1.00
816;DHT22;25928;51.062;13.752;2022-10-16T10:19:54;23.10;1.00
816;DHT22;25928;51.062;13.752;2022-10-16T10:30:30;23.20;1.00
816;DHT22;25928;51.062;13.752;2022-10-16T10:33:16;23.40;1.00
816;DHT22;25928;51.062;13.752;2022-10-16T10:35:53;23.70;1.00
816;DHT22;25928;51.062;13.752;2022-10-16T10:44:21;24.70;1.00
816;DHT22;25928;51.062;13.752;2022-10-16T10:47:17;24.80;1.00
816;DHT22;25928;51.062;13.752;2022-10-16T10:55:18;24.40;1.00
816;DHT22;25928;51.062;13.752;2022-10-16T11:00:57;24.70;1.00
816;DHT22;25928;51.062;13.752;2022-10-16T11:03:58;24.60;1.00
816;DHT22;25928;51.062;13.752;2022-10-16T11:06:44;24.60;1.00
816;DHT22;25928;51.062;13.752;2022-10-16T11:09:27;24.60;1.00
816;DHT22;25928;51.062;13.752;2022-10-16T11:14:46;24.30;1.00
816;DHT22;25928;51.062;13.752;2022-10-16T11:17:30;24.00;1.00
816;DHT22;25928;51.062;13.752;2022-10-16T11:20:19;23.90;1.00
816;DHT22;25928;51.062;13.752;2022-10-16T11:25:31;23.90;1.00
816;DHT22;25928;51.062;13.752;2022-10-16T11:33:42;24.70;1.00
816;DHT22;25928;51.062;13.752;2022-10-16T11:36:33;24.30;1.00
816;DHT22;25928;51.062;13.752;2022-10-16T11:41:39;23.80;1.00
816;DHT22;25928;51.062;13.752;2022-10-16T11:44:24;23.60;1.00
816;DHT22;25928;51.062;13.752;2022-10-16T11:47:09;23.70;1.00
816;DHT22;25928;51.062;13.752;2022-10-16T11:49:39;23.70;1.00
816;DHT22;25928;51.062;13.752;2022-10-16T11:52:25;23.80;1.00
816;DHT22;25928;51.062;13.752;2022-10-16T11:54:58;23.90;1.00
816;DHT22;25928;51.062;13.752;2022-10-16T11:57:28;23.90;1.00
816;DHT22;25928;51.062;13.752;2022-10-16T12:00:02;24.00;1.00
816;DHT22;25928;51.062;13.752;2022-10-16T12:08:10;24.30;1.00
816;DHT22;25928;51.062;13.752;2022-10-16T12:10:38;24.30;1.00
816;DHT22;25928;51.062;13.752;2022-10-16T12:16:24;24.40;1.00
816;DHT22;25928;51.062;13.752;2022-10-16T12:18:50;24.40;1.00
816;DHT22;25928;51.062;13.752;2022-10-16T12:21:30;24.50;1.00
816;DHT22;25928;51.062;13.752;2022-10-16T12:24:03;24.30;1.00
816;DHT22;25928;51.062;13.752;2022-10-16T12:26:33;24.30;1.00
816;DHT22;25928;51.062;13.752;2022-10-16T12:29:35;24.20;1.00
816;DHT22;25928;51.062;13.752;2022-10-16T12:32:04;24.20;1.00
816;DHT22;25928;51.062;13.752;2022-10-16T12:34:42;24.10;1.00
816;DHT22;25928;51.062;13.752;2022-10-16T12:37:14;23.90;1.00
816;DHT22;25928;51.062;13.752;2022-10-16T12:39:44;23.70;1.00
816;DHT22;25928;51.062;13.752;2022-10-16T12:44:53;24.10;1.00
816;DHT22;25928;51.062;13.752;2022-10-16T12:47:24;24.20;1.00
816;DHT22;25928;51.062;13.752;2022-10-16T12:50:00;24.20;1.00
816;DHT22;25928;51.062;13.752;2022-10-16T12:52:44;24.30;1.00
816;DHT22;25928;51.062;13.752;2022-10-16T12:55:17;24.80;1.00
816;DHT22;25928;51.062;13.752;2022-10-16T12:58:00;25.30;1.00
816;DHT22;25928;51.062;13.752;2022-10-16T13:06:58;24.70;1.00
816;DHT22;25928;51.062;13.752;2022-10-16T13:09:49;24.30;1.00
816;DHT22;25928;51.062;13.752;2022-10-16T13:21:33;24.20;1.00
816;DHT22;25928;51.062;13.752;2022-10-16T13:24:06;24.20;1.00
816;DHT22;25928;51.062;13.752;2022-10-16T13:26:57;24.20;1.00
816;DHT22;25928;51.062;13.752;2022-10-16T13:29:31;24.00;1.00
816;DHT22;25928;51.062;13.752;2022-10-16T13:31:58;23.90;1.00
816;DHT22;25928;51.062;13.752;2022-10-16T13:34:24;23.90;1.00
816;DHT22;25928;51.062;13.752;2022-10-16T13:36:52;24.10;1.00
816;DHT22;25928;51.062;13.752;2022-10-16T13:39:29;24.00;1.00
816;DHT22;25928;51.062;13.752;2022-10-16T13:42:15;23.80;1.00
816;DHT22;25928;51.062;13.752;2022-10-16T13:44:44;23.70;1.00
816;DHT22;25928;51.062;13.752;2022-10-16T13:47:26;23.60;1.00
816;DHT22;25928;51.062;13.752;2022-10-16T13:50:04;23.60;1.00
816;DHT22;25928;51.062;13.752;2022-10-16T13:52:31;23.60;1.00
816;DHT22;25928;51.062;13.752;2022-10-16T13:54:57;23.60;1.00
816;DHT22;25928;51.062;13.752;2022-10-16T13:57:24;23.60;1.00
816;DHT22;25928;51.062;13.752;2022-10-16T13:59:50;23.70;1.00
816;DHT22;25928;51.062;13.752;2022-10-16T14:02:24;23.90;1.00
816;DHT22;25928;51.062;13.752;2022-10-16T14:04:51;24.10;1.00
816;DHT22;25928;51.062;13.752;2022-10-16T14:07:28;24.30;1.00
816;DHT22;25928;51.062;13.752;2022-10-16T14:09:55;24.30;1.00
816;DHT22;25928;51.062;13.752;2022-10-16T14:12:23;24.30;1.00
816;DHT22;25928;51.062;13.752;2022-10-16T14:14:51;24.20;1.00
816;DHT22;25928;51.062;13.752;2022-10-16T14:17:24;24.00;1.00
816;DHT22;25928;51.062;13.752;2022-10-16T14:19:54;23.90;1.00
816;DHT22;25928;51.062;13.752;2022-10-16T14:22:35;24.00;1.00
816;DHT22;25928;51.062;13.752;2022-10-16T14:25:26;23.90;1.00
816;DHT22;25928;51.062;13.752;2022-10-16T14:28:13;23.90;1.00
816;DHT22;25928;51.062;13.752;2022-10-16T14:33:33;23.70;1.00
816;DHT22;25928;51.062;13.752;2022-10-16T14:36:16;23.70;1.00
816;DHT22;25928;51.062;13.752;2022-10-16T14:38:59;23.80;1.00
816;DHT22;25928;51.062;13.752;2022-10-16T14:41:26;23.70;1.00
816;DHT22;25928;51.062;13.752;2022-10-16T14:43:57;23.80;1.00
816;DHT22;25928;51.062;13.752;2022-10-16T14:46:33;23.80;1.00
816;DHT22;25928;51.062;13.752;2022-10-16T14:49:20;23.70;1.00
816;DHT22;25928;51.062;13.752;2022-10-16T14:51:47;23.70;1.00
816;DHT22;25928;51.062;13.752;2022-10-16T14:54:15;23.80;1.00
816;DHT22;25928;51.062;13.752;2022-10-16T14:56:48;23.90;1.00
816;DHT22;25928;51.062;13.752;2022-10-16T14:59:32;23.70;1.00
816;DHT22;25928;51.062;13.752;2022-10-16T15:01:59;23.60;1.00
816;DHT22;25928;51.062;13.752;2022-10-16T15:04:25;23.50;1.00
816;DHT22;25928;51.062;13.752;2022-10-16T15:06:50;23.60;1.00
816;DHT22;25928;51.062;13.752;2022-10-16T15:09:16;23.60;1.00
816;DHT22;25928;51.062;13.752;2022-10-16T15:11:42;23.70;1.00
816;DHT22;25928;51.062;13.752;2022-10-16T15:14:11;24.40;1.00
816;DHT22;25928;51.062;13.752;2022-10-16T15:16:38;25.20;1.00
816;DHT22;25928;51.062;13.752;2022-10-16T15:19:03;26.10;1.00
816;DHT22;25928;51.062;13.752;2022-10-16T15:21:31;26.60;1.00
816;DHT22;25928;51.062;13.752;2022-10-16T15:23:58;26.80;1.00
816;DHT22;25928;51.062;13.752;2022-10-16T15:26:26;26.70;1.00
816;DHT22;25928;51.062;13.752;2022-10-16T15:28:52;26.30;1.00
816;DHT22;25928;51.062;13.752;2022-10-16T15:31:17;26.00;1.00
816;DHT22;25928;51.062;13.752;2022-10-16T15:33:43;25.50;1.00
816;DHT22;25928;51.062;13.752;2022-10-16T15:36:13;24.90;1.00
816;DHT22;25928;51.062;13.752;2022-10-16T15:38:38;24.30;1.00
816;DHT22;25928;51.062;13.752;2022-10-16T15:41:04;24.10;1.00
816;DHT22;25928;51.062;13.752;2022-10-16T15:43:29;24.00;1.00
816;DHT22;25928;51.062;13.752;2022-10-16T15:46:04;23.70;1.00
816;DHT22;25928;51.062;13.752;2022-10-16T15:48:32;23.40;1.00
816;DHT22;25928;51.062;13.752;2022-10-16T15:50:59;23.10;1.00
816;DHT22;25928;51.062;13.752;2022-10-16T15:53:25;22.80;1.00
816;DHT22;25928;51.062;13.752;2022-10-16T15:55:50;22.50;1.00
816;DHT22;25928;51.062;13.752;2022-10-16T15:58:16;22.30;1.00
816;DHT22;25928;51.062;13.752;2022-10-16T16:00:42;22.20;1.00
816;DHT22;25928;51.062;13.752;2022-10-16T16:03:08;22.10;1.00
816;DHT22;25928;51.062;13.752;2022-10-16T16:05:38;22.00;1.00
816;DHT22;25928;51.062;13.752;2022-10-16T16:08:03;21.90;1.00
816;DHT22;25928;51.062;13.752;2022-10-16T16:10:29;21.80;1.00
816;DHT22;25928;51.062;13.752;2022-10-16T16:12:54;21.70;1.00
816;DHT22;25928;51.062;13.752;2022-10-16T16:15:21;21.50;1.00
816;DHT22;25928;51.062;13.752;2022-10-16T16:17:47;21.40;1.00
816;DHT22;25928;51.062;13.752;2022-10-16T16:20:13;21.30;1.00
816;DHT22;25928;51.062;13.752;2022-10-16T16:22:39;21.20;1.00
816;DHT22;25928;51.062;13.752;2022-10-16T16:25:05;21.20;1.00
816;DHT22;25928;51.062;13.752;2022-10-16T16:27:30;21.10;1.00
816;DHT22;25928;51.062;13.752;2022-10-16T16:29:59;21.10;1.00
816;DHT22;25928;51.062;13.752;2022-10-16T16:32:24;20.90;1.00
816;DHT22;25928;51.062;13.752;2022-10-16T16:34:50;20.90;1.00
816;DHT22;25928;51.062;13.752;2022-10-16T16:37:16;20.90;1.00
816;DHT22;25928;51.062;13.752;2022-10-16T16:39:41;20.80;1.00
816;DHT22;25928;51.062;13.752;2022-10-16T16:42:07;20.70;1.00
816;DHT22;25928;51.062;13.752;2022-10-16T16:44:34;20.60;1.00
816;DHT22;25928;51.062;13.752;2022-10-16T16:47:02;20.50;1.00
816;DHT22;25928;51.062;13.752;2022-10-16T16:49:27;20.50;1.00
816;DHT22;25928;51.062;13.752;2022-10-16T16:51:53;20.60;1.00
816;DHT22;25928;51.062;13.752;2022-10-16T16:54:19;20.50;1.00
816;DHT22;25928;51.062;13.752;2022-10-16T16:56:45;20.30;1.00
816;DHT22;25928;51.062;13.752;2022-10-16T16:59:17;20.20;1.00
816;DHT22;25928;51.062;13.752;2022-10-16T17:01:43;20.10;1.00
816;DHT22;25928;51.062;13.752;2022-10-16T17:04:09;20.10;1.00
816;DHT22;25928;51.062;13.752;2022-10-16T17:06:36;20.00;1.00
816;DHT22;25928;51.062;13.752;2022-10-16T17:09:03;19.90;1.00
816;DHT22;25928;51.062;13.752;2022-10-16T17:11:29;19.80;1.00
816;DHT22;25928;51.062;13.752;2022-10-16T17:13:56;19.80;1.00
816;DHT22;25928;51.062;13.752;2022-10-16T17:16:25;19.70;1.00
816;DHT22;25928;51.062;13.752;2022-10-16T17:18:52;19.70;1.00
816;DHT22;25928;51.062;13.752;2022-10-16T17:21:18;19.70;1.00
816;DHT22;25928;51.062;13.752;2022-10-16T17:23:44;19.60;1.00
816;DHT22;25928;51.062;13.752;2022-10-16T17:26:15;19.50;1.00
816;DHT22;25928;51.062;13.752;2022-10-16T17:28:41;19.50;1.00
816;DHT22;25928;51.062;13.752;2022-10-16T17:31:13;19.40;1.00
816;DHT22;25928;51.062;13.752;2022-10-16T17:33:39;19.30;1.00
816;DHT22;25928;51.062;13.752;2022-10-16T17:36:06;19.20;1.00
816;DHT22;25928;51.062;13.752;2022-10-16T17:38:32;19.20;1.00
816;DHT22;25928;51.062;13.752;2022-10-16T17:40:58;19.30;1.00
816;DHT22;25928;51.062;13.752;2022-10-16T17:43:24;19.10;1.00
816;DHT22;25928;51.062;13.752;2022-10-16T17:45:49;19.00;1.00
816;DHT22;25928;51.062;13.752;2022-10-16T17:48:15;19.00;1.00
816;DHT22;25928;51.062;13.752;2022-10-16T17:50:41;18.80;1.00
816;DHT22;25928;51.062;13.752;2022-10-16T17:53:08;18.90;1.00
816;DHT22;25928;51.062;13.752;2022-10-16T17:55:40;18.80;1.00
816;DHT22;25928;51.062;13.752;2022-10-16T17:58:07;18.80;1.00